sensor_id;sensor_type;location;lat;lon;timestamp;P1;durP1;ratioP1;P2;durP2;ratioP2
5813;SDS011;2933;52.302;8.134;2023-07-24T00:02:49;2.83;;;2.63;;
5813;SDS011;2933;52.302;8.134;2023-07-24T00:07:54;2.60;;;2.50;;
5813;SDS011;2933;52.302;8.134;2023-07-24T00:12:56;3.07;;;2.87;;
5813;SDS011;2933;52.302;8.134;2023-07-24T00:17:58;3.03;;;2.83;;
5813;SDS011;2933;52.302;8.134;2023-07-24T00:23:00;8.00;;;2.53;;
5813;SDS011;2933;52.302;8.134;2023-07-24T00:28:02;3.83;;;3.27;;
5813;SDS011;2933;52.302;8.134;2023-07-24T00:33:04;3.10;;;2.90;;
5813;SDS011;2933;52.302;8.134;2023-07-24T00:38:06;3.47;;;3.27;;
5813;SDS011;2933;52.302;8.134;2023-07-24T00:43:08;3.40;;;3.20;;
5813;SDS011;2933;52.302;8.134;2023-07-24T00:48:09;3.10;;;2.90;;
5813;SDS011;2933;52.302;8.134;2023-07-24T00:53:12;3.53;;;3.27;;
5813;SDS011;2933;52.302;8.134;2023-07-24T00:58:16;3.40;;;3.10;;
5813;SDS011;2933;52.302;8.134;2023-07-24T01:03:18;3.83;;;3.63;;
5813;SDS011;2933;52.302;8.134;2023-07-24T01:08:21;4.47;;;4.27;;
5813;SDS011;2933;52.302;8.134;2023-07-24T01:13:24;5.70;;;4.10;;
5813;SDS011;2933;52.302;8.134;2023-07-24T01:18:30;5.10;;;4.80;;
5813;SDS011;2933;52.302;8.134;2023-07-24T01:23:37;4.60;;;4.30;;
5813;SDS011;2933;52.302;8.134;2023-07-24T01:28:46;5.43;;;4.97;;
5813;SDS011;2933;52.302;8.134;2023-07-24T01:33:48;5.33;;;5.03;;
5813;SDS011;2933;52.302;8.134;2023-07-24T01:38:49;9.93;;;5.13;;
5813;SDS011;2933;52.302;8.134;2023-07-24T01:43:53;6.23;;;5.40;;
5813;SDS011;2933;52.302;8.134;2023-07-24T01:48:54;5.47;;;5.07;;
5813;SDS011;2933;52.302;8.134;2023-07-24T01:53:56;6.07;;;5.53;;
5813;SDS011;2933;52.302;8.134;2023-07-24T01:58:59;5.53;;;5.00;;
5813;SDS011;2933;52.302;8.134;2023-07-24T02:04:01;8.30;;;5.20;;
5813;SDS011;2933;52.302;8.134;2023-07-24T02:09:02;7.70;;;5.70;;
5813;SDS011;2933;52.302;8.134;2023-07-24T02:14:05;5.10;;;4.80;;
5813;SDS011;2933;52.302;8.134;2023-07-24T02:19:07;8.10;;;5.90;;
5813;SDS011;2933;52.302;8.134;2023-07-24T02:24:08;7.37;;;5.27;;
5813;SDS011;2933;52.302;8.134;2023-07-24T02:29:11;9.37;;;6.13;;
5813;SDS011;2933;52.302;8.134;2023-07-24T02:34:12;16.57;;;6.07;;
5813;SDS011;2933;52.302;8.134;2023-07-24T02:39:15;6.33;;;5.80;;
5813;SDS011;2933;52.302;8.134;2023-07-24T02:44:18;10.23;;;5.97;;
5813;SDS011;2933;52.302;8.134;2023-07-24T02:49:20;6.00;;;5.60;;
5813;SDS011;2933;52.302;8.134;2023-07-24T02:54:21;8.43;;;6.67;;
5813;SDS011;2933;52.302;8.134;2023-07-24T02:59:24;7.77;;;6.97;;
5813;SDS011;2933;52.302;8.134;2023-07-24T03:04:25;10.97;;;8.10;;
5813;SDS011;2933;52.302;8.134;2023-07-24T03:09:27;9.30;;;7.43;;
5813;SDS011;2933;52.302;8.134;2023-07-24T03:14:30;10.93;;;7.13;;
5813;SDS011;2933;52.302;8.134;2023-07-24T03:19:32;6.97;;;6.33;;
5813;SDS011;2933;52.302;8.134;2023-07-24T03:24:33;7.13;;;6.50;;
5813;SDS011;2933;52.302;8.134;2023-07-24T03:29:36;7.20;;;5.93;;
5813;SDS011;2933;52.302;8.134;2023-07-24T03:34:39;5.97;;;5.47;;
5813;SDS011;2933;52.302;8.134;2023-07-24T03:39:40;6.80;;;6.20;;
5813;SDS011;2933;52.302;8.134;2023-07-24T03:44:43;6.57;;;5.90;;
5813;SDS011;2933;52.302;8.134;2023-07-24T03:49:45;9.77;;;6.93;;
5813;SDS011;2933;52.302;8.134;2023-07-24T03:54:46;6.67;;;5.87;;
5813;SDS011;2933;52.302;8.134;2023-07-24T03:59:49;7.60;;;4.83;;
5813;SDS011;2933;52.302;8.134;2023-07-24T04:04:51;4.70;;;4.30;;
5813;SDS011;2933;52.302;8.134;2023-07-24T04:09:52;10.40;;;4.47;;
5813;SDS011;2933;52.302;8.134;2023-07-24T04:14:55;4.97;;;4.60;;
5813;SDS011;2933;52.302;8.134;2023-07-24T04:19:57;4.80;;;4.40;;
5813;SDS011;2933;52.302;8.134;2023-07-24T04:24:58;12.80;;;5.30;;
5813;SDS011;2933;52.302;8.134;2023-07-24T04:30:01;5.60;;;5.10;;
5813;SDS011;2933;52.302;8.134;2023-07-24T04:35:03;7.33;;;5.27;;
5813;SDS011;2933;52.302;8.134;2023-07-24T04:40:05;5.47;;;4.97;;
5813;SDS011;2933;52.302;8.134;2023-07-24T04:45:09;5.73;;;5.10;;
5813;SDS011;2933;52.302;8.134;2023-07-24T04:50:11;7.20;;;4.37;;
5813;SDS011;2933;52.302;8.134;2023-07-24T04:55:13;5.57;;;4.67;;
5813;SDS011;2933;52.302;8.134;2023-07-24T05:00:16;4.73;;;4.33;;
5813;SDS011;2933;52.302;8.134;2023-07-24T05:05:17;4.50;;;3.73;;
5813;SDS011;2933;52.302;8.134;2023-07-24T05:10:19;9.70;;;3.50;;
5813;SDS011;2933;52.302;8.134;2023-07-24T05:15:22;7.30;;;3.33;;
5813;SDS011;2933;52.302;8.134;2023-07-24T05:20:23;6.03;;;3.37;;
5813;SDS011;2933;52.302;8.134;2023-07-24T05:25:25;5.17;;;3.83;;
5813;SDS011;2933;52.302;8.134;2023-07-24T05:30:28;7.37;;;3.63;;
5813;SDS011;2933;52.302;8.134;2023-07-24T05:35:29;4.73;;;4.17;;
5813;SDS011;2933;52.302;8.134;2023-07-24T05:40:31;5.77;;;4.10;;
5813;SDS011;2933;52.302;8.134;2023-07-24T05:45:33;7.43;;;4.00;;
5813;SDS011;2933;52.302;8.134;2023-07-24T05:50:35;3.80;;;3.47;;
5813;SDS011;2933;52.302;8.134;2023-07-24T05:55:36;3.10;;;2.90;;
5813;SDS011;2933;52.302;8.134;2023-07-24T06:00:39;3.10;;;2.90;;
5813;SDS011;2933;52.302;8.134;2023-07-24T06:05:41;3.30;;;3.10;;
5813;SDS011;2933;52.302;8.134;2023-07-24T06:10:42;2.80;;;2.70;;
5813;SDS011;2933;52.302;8.134;2023-07-24T06:15:46;3.10;;;2.90;;
5813;SDS011;2933;52.302;8.134;2023-07-24T06:20:51;3.43;;;3.23;;
5813;SDS011;2933;52.302;8.134;2023-07-24T06:25:53;2.90;;;2.80;;
5813;SDS011;2933;52.302;8.134;2023-07-24T06:30:56;3.60;;;3.40;;
5813;SDS011;2933;52.302;8.134;2023-07-24T06:35:58;3.50;;;3.17;;
5813;SDS011;2933;52.302;8.134;2023-07-24T06:40:59;3.10;;;2.90;;
5813;SDS011;2933;52.302;8.134;2023-07-24T06:46:02;3.07;;;2.87;;
5813;SDS011;2933;52.302;8.134;2023-07-24T06:51:04;3.60;;;3.00;;
5813;SDS011;2933;52.302;8.134;2023-07-24T06:56:05;3.37;;;2.80;;
5813;SDS011;2933;52.302;8.134;2023-07-24T07:01:08;3.60;;;3.40;;
5813;SDS011;2933;52.302;8.134;2023-07-24T07:06:10;3.80;;;3.50;;
5813;SDS011;2933;52.302;8.134;2023-07-24T07:11:12;3.10;;;3.00;;
5813;SDS011;2933;52.302;8.134;2023-07-24T07:16:15;3.77;;;3.57;;
5813;SDS011;2933;52.302;8.134;2023-07-24T07:21:18;3.83;;;3.53;;
5813;SDS011;2933;52.302;8.134;2023-07-24T07:26:20;4.50;;;4.30;;
5813;SDS011;2933;52.302;8.134;2023-07-24T07:31:23;5.40;;;4.40;;
5813;SDS011;2933;52.302;8.134;2023-07-24T07:36:25;5.60;;;5.10;;
5813;SDS011;2933;52.302;8.134;2023-07-24T07:41:26;4.77;;;4.47;;
5813;SDS011;2933;52.302;8.134;2023-07-24T07:46:30;4.80;;;4.40;;
5813;SDS011;2933;52.302;8.134;2023-07-24T07:51:31;5.93;;;5.53;;
5813;SDS011;2933;52.302;8.134;2023-07-24T07:56:33;5.83;;;5.63;;
5813;SDS011;2933;52.302;8.134;2023-07-24T08:01:37;6.50;;;6.10;;
5813;SDS011;2933;52.302;8.134;2023-07-24T08:06:39;4.63;;;4.43;;
5813;SDS011;2933;52.302;8.134;2023-07-24T08:11:40;4.47;;;4.27;;
5813;SDS011;2933;52.302;8.134;2023-07-24T08:16:43;4.57;;;4.20;;
5813;SDS011;2933;52.302;8.134;2023-07-24T08:21:46;3.90;;;3.70;;
5813;SDS011;2933;52.302;8.134;2023-07-24T08:26:48;4.80;;;3.40;;
5813;SDS011;2933;52.302;8.134;2023-07-24T08:31:50;2.40;;;2.30;;
5813;SDS011;2933;52.302;8.134;2023-07-24T08:36:52;1.60;;;1.60;;
5813;SDS011;2933;52.302;8.134;2023-07-24T08:41:53;1.83;;;1.80;;
5813;SDS011;2933;52.302;8.134;2023-07-24T08:46:56;1.13;;;1.13;;
5813;SDS011;2933;52.302;8.134;2023-07-24T08:51:58;2.77;;;1.60;;
5813;SDS011;2933;52.302;8.134;2023-07-24T08:57:02;1.40;;;1.30;;
5813;SDS011;2933;52.302;8.134;2023-07-24T09:02:05;1.60;;;1.50;;
5813;SDS011;2933;52.302;8.134;2023-07-24T09:07:07;1.53;;;1.53;;
5813;SDS011;2933;52.302;8.134;2023-07-24T09:12:08;1.30;;;1.30;;
5813;SDS011;2933;52.302;8.134;2023-07-24T09:17:17;1.93;;;1.83;;
5813;SDS011;2933;52.302;8.134;2023-07-24T09:22:19;1.80;;;1.70;;
5813;SDS011;2933;52.302;8.134;2023-07-24T09:27:21;2.00;;;1.90;;
5813;SDS011;2933;52.302;8.134;2023-07-24T09:32:28;2.07;;;1.97;;
5813;SDS011;2933;52.302;8.134;2023-07-24T09:37:32;1.93;;;1.83;;
5813;SDS011;2933;52.302;8.134;2023-07-24T09:42:35;2.43;;;2.33;;
5813;SDS011;2933;52.302;8.134;2023-07-24T09:47:39;2.10;;;2.00;;
5813;SDS011;2933;52.302;8.134;2023-07-24T09:52:41;5.90;;;2.30;;
5813;SDS011;2933;52.302;8.134;2023-07-24T09:57:45;2.23;;;2.13;;
5813;SDS011;2933;52.302;8.134;2023-07-24T10:02:49;2.43;;;2.33;;
5813;SDS011;2933;52.302;8.134;2023-07-24T10:07:51;3.60;;;2.83;;
5813;SDS011;2933;52.302;8.134;2023-07-24T10:12:53;2.83;;;2.63;;
5813;SDS011;2933;52.302;8.134;2023-07-24T10:18:02;4.90;;;2.87;;
5813;SDS011;2933;52.302;8.134;2023-07-24T10:23:05;3.67;;;3.40;;
5813;SDS011;2933;52.302;8.134;2023-07-24T10:28:08;3.60;;;3.30;;
5813;SDS011;2933;52.302;8.134;2023-07-24T10:33:16;3.43;;;2.80;;
5813;SDS011;2933;52.302;8.134;2023-07-24T10:38:19;3.63;;;3.17;;
5813;SDS011;2933;52.302;8.134;2023-07-24T10:43:21;7.90;;;3.20;;
5813;SDS011;2933;52.302;8.134;2023-07-24T10:48:25;3.40;;;3.20;;
5813;SDS011;2933;52.302;8.134;2023-07-24T10:53:27;3.17;;;2.97;;
5813;SDS011;2933;52.302;8.134;2023-07-24T10:58:28;2.50;;;2.40;;
5813;SDS011;2933;52.302;8.134;2023-07-24T11:03:31;3.20;;;2.90;;
5813;SDS011;2933;52.302;8.134;2023-07-24T11:08:33;2.77;;;2.57;;
5813;SDS011;2933;52.302;8.134;2023-07-24T11:13:37;5.93;;;2.57;;
5813;SDS011;2933;52.302;8.134;2023-07-24T11:18:47;2.87;;;2.67;;
5813;SDS011;2933;52.302;8.134;2023-07-24T11:23:50;2.97;;;2.77;;
5813;SDS011;2933;52.302;8.134;2023-07-24T11:28:53;4.90;;;2.50;;
5813;SDS011;2933;52.302;8.134;2023-07-24T11:33:56;4.20;;;2.40;;
5813;SDS011;2933;52.302;8.134;2023-07-24T11:38:58;3.57;;;3.27;;
5813;SDS011;2933;52.302;8.134;2023-07-24T11:44:00;3.00;;;2.67;;
5813;SDS011;2933;52.302;8.134;2023-07-24T11:49:03;4.00;;;3.10;;
5813;SDS011;2933;52.302;8.134;2023-07-24T11:54:05;2.77;;;2.67;;
5813;SDS011;2933;52.302;8.134;2023-07-24T11:59:11;3.57;;;3.37;;
5813;SDS011;2933;52.302;8.134;2023-07-24T12:04:14;3.03;;;2.70;;
5813;SDS011;2933;52.302;8.134;2023-07-24T12:09:16;2.83;;;2.70;;
5813;SDS011;2933;52.302;8.134;2023-07-24T12:14:18;2.40;;;2.30;;
5813;SDS011;2933;52.302;8.134;2023-07-24T12:19:21;3.20;;;3.00;;
5813;SDS011;2933;52.302;8.134;2023-07-24T12:24:22;2.87;;;2.77;;
5813;SDS011;2933;52.302;8.134;2023-07-24T12:29:24;2.60;;;2.50;;
5813;SDS011;2933;52.302;8.134;2023-07-24T12:34:27;3.90;;;3.00;;
5813;SDS011;2933;52.302;8.134;2023-07-24T12:39:28;3.20;;;2.90;;
5813;SDS011;2933;52.302;8.134;2023-07-24T12:44:30;4.70;;;3.23;;
5813;SDS011;2933;52.302;8.134;2023-07-24T12:49:33;3.90;;;3.60;;
5813;SDS011;2933;52.302;8.134;2023-07-24T12:54:35;2.33;;;2.23;;
5813;SDS011;2933;52.302;8.134;2023-07-24T12:59:36;5.67;;;2.80;;
5813;SDS011;2933;52.302;8.134;2023-07-24T13:04:39;2.93;;;2.80;;
5813;SDS011;2933;52.302;8.134;2023-07-24T13:09:40;3.47;;;3.17;;
5813;SDS011;2933;52.302;8.134;2023-07-24T13:14:42;2.37;;;2.17;;
5813;SDS011;2933;52.302;8.134;2023-07-24T13:19:45;2.77;;;2.57;;
5813;SDS011;2933;52.302;8.134;2023-07-24T13:24:46;2.80;;;2.27;;
5813;SDS011;2933;52.302;8.134;2023-07-24T13:29:48;2.80;;;2.60;;
5813;SDS011;2933;52.302;8.134;2023-07-24T13:34:51;2.37;;;2.17;;
5813;SDS011;2933;52.302;8.134;2023-07-24T13:39:52;2.70;;;2.50;;
5813;SDS011;2933;52.302;8.134;2023-07-24T13:44:54;2.80;;;2.60;;
5813;SDS011;2933;52.302;8.134;2023-07-24T13:49:57;4.90;;;2.90;;
5813;SDS011;2933;52.302;8.134;2023-07-24T13:55:00;2.90;;;2.70;;
5813;SDS011;2933;52.302;8.134;2023-07-24T14:00:02;3.50;;;2.83;;
5813;SDS011;2933;52.302;8.134;2023-07-24T14:05:05;2.70;;;2.57;;
5813;SDS011;2933;52.302;8.134;2023-07-24T14:10:08;3.10;;;2.90;;
5813;SDS011;2933;52.302;8.134;2023-07-24T14:15:10;3.00;;;2.90;;
5813;SDS011;2933;52.302;8.134;2023-07-24T14:20:13;2.70;;;2.60;;
5813;SDS011;2933;52.302;8.134;2023-07-24T14:25:14;3.00;;;2.90;;
5813;SDS011;2933;52.302;8.134;2023-07-24T14:30:16;2.70;;;2.50;;
5813;SDS011;2933;52.302;8.134;2023-07-24T14:35:19;2.20;;;2.00;;
5813;SDS011;2933;52.302;8.134;2023-07-24T14:40:21;2.33;;;2.23;;
5813;SDS011;2933;52.302;8.134;2023-07-24T14:45:22;2.80;;;2.60;;
5813;SDS011;2933;52.302;8.134;2023-07-24T14:50:26;2.93;;;2.63;;
5813;SDS011;2933;52.302;8.134;2023-07-24T14:55:27;2.50;;;2.40;;
5813;SDS011;2933;52.302;8.134;2023-07-24T15:00:29;2.47;;;2.37;;
5813;SDS011;2933;52.302;8.134;2023-07-24T15:05:34;2.50;;;2.40;;
5813;SDS011;2933;52.302;8.134;2023-07-24T15:10:35;2.00;;;1.90;;
5813;SDS011;2933;52.302;8.134;2023-07-24T15:15:37;1.97;;;1.87;;
5813;SDS011;2933;52.302;8.134;2023-07-24T15:20:40;2.27;;;2.07;;
5813;SDS011;2933;52.302;8.134;2023-07-24T15:25:41;4.03;;;2.27;;
5813;SDS011;2933;52.302;8.134;2023-07-24T15:30:43;2.00;;;1.90;;
5813;SDS011;2933;52.302;8.134;2023-07-24T15:35:46;2.27;;;1.77;;
5813;SDS011;2933;52.302;8.134;2023-07-24T15:40:48;2.80;;;2.40;;
5813;SDS011;2933;52.302;8.134;2023-07-24T15:45:49;4.47;;;2.10;;
5813;SDS011;2933;52.302;8.134;2023-07-24T15:50:52;2.40;;;2.20;;
5813;SDS011;2933;52.302;8.134;2023-07-24T15:55:54;2.40;;;2.30;;
5813;SDS011;2933;52.302;8.134;2023-07-24T16:00:55;2.80;;;1.90;;
5813;SDS011;2933;52.302;8.134;2023-07-24T16:05:58;2.30;;;2.20;;
5813;SDS011;2933;52.302;8.134;2023-07-24T16:11:00;3.57;;;2.40;;
5813;SDS011;2933;52.302;8.134;2023-07-24T16:16:02;10.00;;;3.37;;
5813;SDS011;2933;52.302;8.134;2023-07-24T16:21:06;4.43;;;2.50;;
5813;SDS011;2933;52.302;8.134;2023-07-24T16:26:07;4.33;;;2.77;;
5813;SDS011;2933;52.302;8.134;2023-07-24T16:31:09;4.33;;;3.93;;
5813;SDS011;2933;52.302;8.134;2023-07-24T16:36:12;4.80;;;3.60;;
5813;SDS011;2933;52.302;8.134;2023-07-24T16:41:13;4.23;;;3.90;;
5813;SDS011;2933;52.302;8.134;2023-07-24T16:46:15;4.53;;;1.80;;
5813;SDS011;2933;52.302;8.134;2023-07-24T16:51:18;2.03;;;1.93;;
5813;SDS011;2933;52.302;8.134;2023-07-24T16:56:20;2.50;;;2.40;;
5813;SDS011;2933;52.302;8.134;2023-07-24T17:01:21;2.20;;;2.10;;
5813;SDS011;2933;52.302;8.134;2023-07-24T17:06:24;3.13;;;2.20;;
5813;SDS011;2933;52.302;8.134;2023-07-24T17:11:26;3.63;;;2.40;;
5813;SDS011;2933;52.302;8.134;2023-07-24T17:16:27;2.87;;;2.60;;
5813;SDS011;2933;52.302;8.134;2023-07-24T17:21:31;4.60;;;2.57;;
5813;SDS011;2933;52.302;8.134;2023-07-24T17:26:32;3.07;;;2.80;;
5813;SDS011;2933;52.302;8.134;2023-07-24T17:31:34;3.47;;;3.13;;
5813;SDS011;2933;52.302;8.134;2023-07-24T17:36:38;7.20;;;3.17;;
5813;SDS011;2933;52.302;8.134;2023-07-24T17:41:39;3.27;;;2.97;;
5813;SDS011;2933;52.302;8.134;2023-07-24T17:46:41;3.83;;;3.47;;
5813;SDS011;2933;52.302;8.134;2023-07-24T17:51:43;3.70;;;3.40;;
5813;SDS011;2933;52.302;8.134;2023-07-24T17:56:45;3.20;;;3.00;;
5813;SDS011;2933;52.302;8.134;2023-07-24T18:01:46;3.80;;;3.37;;
5813;SDS011;2933;52.302;8.134;2023-07-24T18:06:49;4.50;;;4.10;;
5813;SDS011;2933;52.302;8.134;2023-07-24T18:11:51;4.53;;;3.90;;
5813;SDS011;2933;52.302;8.134;2023-07-24T18:16:52;4.10;;;3.80;;
5813;SDS011;2933;52.302;8.134;2023-07-24T18:21:55;4.93;;;4.50;;
5813;SDS011;2933;52.302;8.134;2023-07-24T18:26:57;5.60;;;4.50;;
5813;SDS011;2933;52.302;8.134;2023-07-24T18:31:58;5.57;;;4.23;;
5813;SDS011;2933;52.302;8.134;2023-07-24T18:37:01;10.23;;;5.07;;
5813;SDS011;2933;52.302;8.134;2023-07-24T18:42:03;5.87;;;5.20;;
5813;SDS011;2933;52.302;8.134;2023-07-24T18:47:05;8.90;;;5.27;;
5813;SDS011;2933;52.302;8.134;2023-07-24T18:52:08;2.60;;;2.50;;
5813;SDS011;2933;52.302;8.134;2023-07-24T18:57:10;2.17;;;1.97;;
5813;SDS011;2933;52.302;8.134;2023-07-24T19:02:12;1.60;;;1.50;;
5813;SDS011;2933;52.302;8.134;2023-07-24T19:07:15;1.50;;;1.40;;
5813;SDS011;2933;52.302;8.134;2023-07-24T19:12:16;1.60;;;1.50;;
5813;SDS011;2933;52.302;8.134;2023-07-24T19:17:18;5.37;;;1.80;;
5813;SDS011;2933;52.302;8.134;2023-07-24T19:22:21;1.60;;;1.50;;
5813;SDS011;2933;52.302;8.134;2023-07-24T19:27:22;1.30;;;1.20;;
5813;SDS011;2933;52.302;8.134;2023-07-24T19:32:24;2.10;;;1.63;;
5813;SDS011;2933;52.302;8.134;2023-07-24T19:37:27;2.60;;;1.63;;
5813;SDS011;2933;52.302;8.134;2023-07-24T19:42:28;2.00;;;1.90;;
5813;SDS011;2933;52.302;8.134;2023-07-24T19:47:30;1.70;;;1.60;;
5813;SDS011;2933;52.302;8.134;2023-07-24T19:52:33;1.87;;;1.63;;
5813;SDS011;2933;52.302;8.134;2023-07-24T19:57:34;2.40;;;2.17;;
5813;SDS011;2933;52.302;8.134;2023-07-24T20:02:36;3.10;;;2.00;;
5813;SDS011;2933;52.302;8.134;2023-07-24T20:07:39;3.00;;;2.50;;
5813;SDS011;2933;52.302;8.134;2023-07-24T20:12:40;3.33;;;2.33;;
5813;SDS011;2933;52.302;8.134;2023-07-24T20:17:42;2.63;;;2.40;;
5813;SDS011;2933;52.302;8.134;2023-07-24T20:22:45;6.57;;;2.50;;
5813;SDS011;2933;52.302;8.134;2023-07-24T20:27:46;5.27;;;2.10;;
5813;SDS011;2933;52.302;8.134;2023-07-24T20:32:48;2.63;;;2.20;;
5813;SDS011;2933;52.302;8.134;2023-07-24T20:37:51;2.47;;;1.93;;
5813;SDS011;2933;52.302;8.134;2023-07-24T20:42:52;2.33;;;2.13;;
5813;SDS011;2933;52.302;8.134;2023-07-24T20:47:54;2.93;;;1.80;;
5813;SDS011;2933;52.302;8.134;2023-07-24T20:52:57;3.90;;;2.50;;
5813;SDS011;2933;52.302;8.134;2023-07-24T20:57:58;3.97;;;1.90;;
5813;SDS011;2933;52.302;8.134;2023-07-24T21:03:00;12.40;;;2.50;;
5813;SDS011;2933;52.302;8.134;2023-07-24T21:08:03;6.60;;;2.27;;
5813;SDS011;2933;52.302;8.134;2023-07-24T21:13:04;4.63;;;3.17;;
5813;SDS011;2933;52.302;8.134;2023-07-24T21:18:06;3.70;;;2.73;;
5813;SDS011;2933;52.302;8.134;2023-07-24T21:23:09;2.50;;;2.30;;
5813;SDS011;2933;52.302;8.134;2023-07-24T21:28:10;5.90;;;2.20;;
5813;SDS011;2933;52.302;8.134;2023-07-24T21:33:13;4.73;;;2.07;;
5813;SDS011;2933;52.302;8.134;2023-07-24T21:38:16;4.20;;;2.03;;
5813;SDS011;2933;52.302;8.134;2023-07-24T21:43:18;4.60;;;2.20;;
5813;SDS011;2933;52.302;8.134;2023-07-24T21:48:19;2.83;;;1.93;;
5813;SDS011;2933;52.302;8.134;2023-07-24T21:53:22;2.90;;;2.03;;
5813;SDS011;2933;52.302;8.134;2023-07-24T21:58:24;5.70;;;1.83;;
5813;SDS011;2933;52.302;8.134;2023-07-24T22:03:25;1.57;;;1.47;;
5813;SDS011;2933;52.302;8.134;2023-07-24T22:08:28;9.13;;;2.13;;
5813;SDS011;2933;52.302;8.134;2023-07-24T22:13:30;5.37;;;1.87;;
5813;SDS011;2933;52.302;8.134;2023-07-24T22:18:31;6.00;;;2.23;;
5813;SDS011;2933;52.302;8.134;2023-07-24T22:23:34;2.40;;;1.73;;
5813;SDS011;2933;52.302;8.134;2023-07-24T22:28:36;3.30;;;1.57;;
5813;SDS011;2933;52.302;8.134;2023-07-24T22:33:37;2.17;;;1.77;;
5813;SDS011;2933;52.302;8.134;2023-07-24T22:38:40;3.63;;;2.00;;
5813;SDS011;2933;52.302;8.134;2023-07-24T22:43:42;2.93;;;1.83;;
5813;SDS011;2933;52.302;8.134;2023-07-24T22:48:44;3.60;;;2.23;;
5813;SDS011;2933;52.302;8.134;2023-07-24T22:53:47;2.43;;;1.70;;
5813;SDS011;2933;52.302;8.134;2023-07-24T22:59:11;1.70;;;1.60;;
5813;SDS011;2933;52.302;8.134;2023-07-24T23:04:18;3.17;;;1.90;;
5813;SDS011;2933;52.302;8.134;2023-07-24T23:09:23;3.57;;;1.90;;
5813;SDS011;2933;52.302;8.134;2023-07-24T23:14:25;2.30;;;2.00;;
5813;SDS011;2933;52.302;8.134;2023-07-24T23:19:26;2.30;;;2.00;;
5813;SDS011;2933;52.302;8.134;2023-07-24T23:24:29;3.50;;;1.70;;
5813;SDS011;2933;52.302;8.134;2023-07-24T23:29:31;4.83;;;1.97;;
5813;SDS011;2933;52.302;8.134;2023-07-24T23:34:32;4.30;;;2.40;;
5813;SDS011;2933;52.302;8.134;2023-07-24T23:39:35;4.60;;;2.83;;
5813;SDS011;2933;52.302;8.134;2023-07-24T23:44:37;5.00;;;2.90;;
5813;SDS011;2933;52.302;8.134;2023-07-24T23:49:38;5.27;;;3.37;;
5813;SDS011;2933;52.302;8.134;2023-07-24T23:54:41;4.43;;;2.30;;
5813;SDS011;2933;52.302;8.134;2023-07-24T23:59:42;7.33;;;3.27;;
